North Bonneville, WA

5:04 PM PST on November 22, 2014 (GMT -0800)
Portland International | Change Station
CLOSE
Current Station
Airport
Location: Portland,
Elevation: 16 ft
Nearby Weather Stations

Elev 16 ft 45.60 °N, 122.61 °W | Updated 11 minutes ago

Partly Cloudy
Partly Cloudy
49 °F
Feels Like 49 °F
N
7
Wind Variable Wind from WSW

Today
High -- | Low -- °F
--% Chance of Precip.
Yesterday
High -- | Low -- °F
Precip. -- in
7:16 AM 4:30 PM
New Moon, 0% visible
Pressure 30.09 in
Visibility 10.0 miles
Clouds Scattered Clouds 4700 ft
Mostly Cloudy 7500 ft
Overcast 19000 ft
Dew Point 44 °F
Humidity 83%
Rainfall 0.15 in
Snow Depth Not available.
UV 0 out of 12
Pollen .10 out of 12
Air Quality Not available.
Flu Activity Not available.
METAR KPDX 230053Z 24006KT 10SM SCT047 BKN075 OVC190 09/07 A3009 RMK AO2 RAB11E34 SLP189 P0000 T00940067

More Conditions Fewer Conditions

Pressure 30.09 in
Visibility 10.0 miles
Clouds Scattered Clouds 4700 ft
Mostly Cloudy 7500 ft
Overcast 19000 ft
Dew Point 44 °F
Humidity 83%
Rainfall 0.15 in
Snow Depth Not available.
UV 0 out of 12
Pollen .10 out of 12
Air Quality Not available.
Flu Activity Not available.
METAR KPDX 230053Z 24006KT 10SM SCT047 BKN075 OVC190 09/07 A3009 RMK AO2 RAB11E34 SLP189 P0000 T00940067

More Conditions Fewer Conditions

10-Day Weather Forecast

Almanac

Astronomy

Nov. 22, 2014 Rise Set
Actual Time
Civil Twilight
Nautical Twilight
Astronomical Twilight
Moon
Length of Visible Light
Length of Day
Tomorrow will be .
, % of the Moon is Illuminated

Today's Extremes

State Highs State Lows

Community

WunderPhotos

Upload Photos

1,772,949 photos uploaded!

WunderBlogs® & News

Nearby

Air Quality

  Air Quality AQ Index Pollutant
Not available.

Snow Depth

Station Depth Elevation

Earthquake Activity

City Distance Mag. Time & Date
Minimum magnitude displayed is 2.5.

Coastal Water Temperatures

Place Temperature

Nearby Weather Stations